createdAt,value
2017-07-11T00:02:10.608Z,21.50
2017-07-11T00:04:40.025Z,21.40
2017-07-11T00:07:08.304Z,21.40
2017-07-11T00:09:36.716Z,21.40
2017-07-11T00:12:05.763Z,21.30
2017-07-11T00:14:34.060Z,21.30
2017-07-11T00:19:32.196Z,21.30
2017-07-11T00:22:00.467Z,21.30
2017-07-11T00:24:28.807Z,21.30
2017-07-11T00:26:58.588Z,21.20
2017-07-11T00:29:26.863Z,21.20
2017-07-11T00:31:55.191Z,21.20
2017-07-11T00:34:23.479Z,21.10
2017-07-11T00:36:51.771Z,21.10
2017-07-11T00:39:20.573Z,21.10
2017-07-11T00:41:49.247Z,21.10
2017-07-11T00:44:17.524Z,21.10
2017-07-11T00:46:45.848Z,21.10
2017-07-11T00:49:14.124Z,21.10
2017-07-11T00:54:12.355Z,21.10
2017-07-11T00:56:40.632Z,21.10
2017-07-11T00:59:08.908Z,21.00
2017-07-11T01:01:38.027Z,21.00
2017-07-11T01:04:07.452Z,20.90
2017-07-11T01:09:06.830Z,20.90
2017-07-11T01:11:35.126Z,20.80
2017-07-11T01:14:03.432Z,20.80
2017-07-11T01:16:33.023Z,20.70
2017-07-11T01:19:01.734Z,20.60
2017-07-11T01:21:31.140Z,20.60
2017-07-11T01:24:01.298Z,20.60
2017-07-11T01:26:29.577Z,20.60
2017-07-11T01:28:58.623Z,20.50
2017-07-11T01:31:28.086Z,20.50
2017-07-11T01:33:56.435Z,20.40
2017-07-11T01:36:34.707Z,20.40
2017-07-11T01:39:03.779Z,20.40
2017-07-11T01:41:32.847Z,20.30
2017-07-11T01:44:01.950Z,20.30
2017-07-11T01:46:30.224Z,20.30
2017-07-11T01:51:28.447Z,20.20
2017-07-11T01:53:56.724Z,20.20
2017-07-11T01:56:25.001Z,20.20
2017-07-11T01:58:53.461Z,20.20
2017-07-11T02:01:22.875Z,20.20
2017-07-11T02:03:51.175Z,20.10
2017-07-11T02:06:20.273Z,20.00
2017-07-11T02:08:49.315Z,20.00
2017-07-11T02:11:17.591Z,19.90
2017-07-11T02:13:45.937Z,19.90
2017-07-11T02:18:44.487Z,19.80
2017-07-11T02:21:13.983Z,19.80
2017-07-11T02:23:42.655Z,19.80
2017-07-11T02:28:40.660Z,19.70
2017-07-11T02:31:10.074Z,19.60
2017-07-11T02:33:38.371Z,19.60
2017-07-11T02:36:06.724Z,19.60
2017-07-11T02:38:35.012Z,19.60
2017-07-11T02:41:03.328Z,19.60
2017-07-11T02:43:31.656Z,19.50
2017-07-11T02:46:00.695Z,19.40
2017-07-11T02:48:28.975Z,19.40
2017-07-11T02:50:57.604Z,19.20
2017-07-11T02:53:26.270Z,19.20
2017-07-11T02:55:55.686Z,19.20
2017-07-11T02:58:27.452Z,19.20
2017-07-11T03:00:55.724Z,19.20
2017-07-11T03:03:24.395Z,19.20
2017-07-11T03:05:52.761Z,19.20
2017-07-11T03:08:21.818Z,19.20
2017-07-11T03:10:50.091Z,19.10
2017-07-11T03:13:18.439Z,19.10
2017-07-11T03:15:46.711Z,19.10
2017-07-11T03:18:14.985Z,19.00
2017-07-11T03:20:43.327Z,19.00
2017-07-11T03:23:12.367Z,19.00
2017-07-11T03:25:41.415Z,18.90
2017-07-11T03:28:09.762Z,18.90
2017-07-11T03:30:39.167Z,18.90
2017-07-11T03:33:07.452Z,18.90
2017-07-11T03:35:35.797Z,18.90
2017-07-11T03:38:04.095Z,18.90
2017-07-11T03:40:32.390Z,18.80
2017-07-11T03:43:01.487Z,18.90
2017-07-11T03:45:30.519Z,18.80
2017-07-11T03:47:59.567Z,18.80
2017-07-11T03:52:58.161Z,18.70
2017-07-11T03:55:27.940Z,18.70
2017-07-11T03:57:56.618Z,18.70
2017-07-11T04:00:24.891Z,18.60
2017-07-11T04:02:54.311Z,18.60
2017-07-11T04:05:24.267Z,18.60
2017-07-11T04:07:52.547Z,18.50
2017-07-11T04:10:20.836Z,18.60
2017-07-11T04:12:49.171Z,18.60
2017-07-11T04:17:47.344Z,18.60
2017-07-11T04:20:15.803Z,18.60
2017-07-11T04:22:44.075Z,18.60
2017-07-11T04:25:12.355Z,18.60
2017-07-11T04:27:41.447Z,18.60
2017-07-11T04:30:09.720Z,18.60
2017-07-11T04:32:38.014Z,18.60
2017-07-11T04:35:07.852Z,18.60
2017-07-11T04:37:36.137Z,18.60
2017-07-11T04:40:04.440Z,18.70
2017-07-11T04:42:33.200Z,18.70
2017-07-11T04:45:01.868Z,18.70
2017-07-11T04:47:30.144Z,18.70
2017-07-11T04:49:58.479Z,18.70
2017-07-11T04:52:27.151Z,18.80
2017-07-11T04:54:55.432Z,18.80
2017-07-11T04:57:25.260Z,18.80
2017-07-11T04:59:53.542Z,18.80
2017-07-11T05:02:21.836Z,18.80
2017-07-11T05:07:21.224Z,18.70
2017-07-11T05:12:19.095Z,18.80
2017-07-11T05:17:17.672Z,18.80
2017-07-11T05:19:47.504Z,18.80
2017-07-11T05:22:15.780Z,18.80
2017-07-11T05:24:44.700Z,18.80
2017-07-11T05:27:14.122Z,18.80
2017-07-11T05:29:42.395Z,18.80
2017-07-11T05:32:10.725Z,18.80
2017-07-11T05:34:39.011Z,18.80
2017-07-11T05:37:07.308Z,18.80
2017-07-11T05:39:35.649Z,18.80
2017-07-11T05:42:05.460Z,18.80
2017-07-11T05:44:34.948Z,18.80
2017-07-11T05:47:04.052Z,18.80
2017-07-11T05:52:03.052Z,18.80
2017-07-11T05:54:31.377Z,18.80
2017-07-11T05:56:59.656Z,18.70
2017-07-11T05:59:27.975Z,18.70
2017-07-11T06:01:57.801Z,18.80
2017-07-11T06:04:26.096Z,18.80
2017-07-11T06:06:55.927Z,18.80
2017-07-11T06:09:24.260Z,18.90
2017-07-11T06:11:52.551Z,18.90
2017-07-11T06:14:20.851Z,18.90
2017-07-11T06:16:49.187Z,19.00
2017-07-11T06:19:18.984Z,19.00
2017-07-11T06:21:47.272Z,19.10
2017-07-11T06:24:15.629Z,19.10
2017-07-11T06:26:44.680Z,19.10
2017-07-11T06:29:13.727Z,19.10
2017-07-11T06:31:42.062Z,19.10
2017-07-11T06:34:11.103Z,19.00
2017-07-11T06:36:39.391Z,19.00
2017-07-11T06:39:07.726Z,19.00
2017-07-11T06:41:37.535Z,18.90
2017-07-11T06:44:05.824Z,19.00
2017-07-11T06:46:34.161Z,19.00
2017-07-11T06:49:02.451Z,18.90
2017-07-11T06:51:30.728Z,19.00
2017-07-11T06:53:59.048Z,19.00
2017-07-11T06:56:28.096Z,19.00
2017-07-11T06:58:56.371Z,18.90
2017-07-11T07:01:24.971Z,18.90
2017-07-11T07:03:53.272Z,19.00
2017-07-11T07:06:22.328Z,19.00
2017-07-11T07:08:51.427Z,19.10
2017-07-11T07:11:19.712Z,19.10
2017-07-11T07:13:48.756Z,19.00
2017-07-11T07:16:17.083Z,19.10
2017-07-11T07:18:45.362Z,19.10
2017-07-11T07:21:13.649Z,19.10
2017-07-11T07:23:41.993Z,19.10
2017-07-11T07:26:11.412Z,19.20
2017-07-11T07:28:39.693Z,19.20
2017-07-11T07:31:08.339Z,19.30
2017-07-11T07:33:36.623Z,19.30
2017-07-11T07:36:04.932Z,19.30
2017-07-11T07:38:34.434Z,19.30
2017-07-11T07:41:03.118Z,19.40
2017-07-11T07:43:32.552Z,19.40
2017-07-11T07:46:00.891Z,19.50
2017-07-11T07:48:29.168Z,19.50
2017-07-11T07:50:57.440Z,19.60
2017-07-11T07:53:26.668Z,19.60
2017-07-11T07:55:54.943Z,19.70
2017-07-11T07:58:23.231Z,19.80
2017-07-11T08:00:53.080Z,19.90
2017-07-11T08:05:51.293Z,19.90
2017-07-11T08:08:21.130Z,20.00
2017-07-11T08:10:49.405Z,20.00
2017-07-11T08:15:47.621Z,20.00
2017-07-11T08:18:16.661Z,20.10
2017-07-11T08:20:46.076Z,20.20
2017-07-11T08:23:14.399Z,20.20
2017-07-11T08:28:12.951Z,20.40
2017-07-11T08:30:41.276Z,20.60
2017-07-11T08:33:10.307Z,20.80
2017-07-11T08:35:39.719Z,21.00
2017-07-11T08:38:08.483Z,21.20
2017-07-11T08:40:36.787Z,21.50
2017-07-11T08:43:05.071Z,21.70
2017-07-11T08:45:34.379Z,21.80
2017-07-11T08:48:03.451Z,22.00
2017-07-11T08:50:33.292Z,22.20
2017-07-11T08:53:01.603Z,22.30
2017-07-11T08:55:30.272Z,22.40
2017-07-11T08:57:58.587Z,22.60
2017-07-11T09:00:27.661Z,22.90
2017-07-11T09:02:55.939Z,23.20
2017-07-11T09:05:24.243Z,23.40
2017-07-11T09:10:22.829Z,23.70
2017-07-11T09:12:52.251Z,24.00
2017-07-11T09:15:21.471Z,24.20
2017-07-11T09:20:20.399Z,24.60
2017-07-11T09:22:48.762Z,24.80
2017-07-11T09:25:17.034Z,25.10
2017-07-11T09:27:45.330Z,25.30
2017-07-11T09:30:19.706Z,25.60
2017-07-11T09:32:47.996Z,25.80
2017-07-11T09:35:17.248Z,25.90
2017-07-11T09:37:45.564Z,26.10
2017-07-11T09:40:14.236Z,26.30
2017-07-11T09:45:12.404Z,26.60
2017-07-11T09:47:42.184Z,26.80
2017-07-11T09:50:10.460Z,26.90
2017-07-11T09:52:39.943Z,27.00
2017-07-11T09:55:08.233Z,27.10
2017-07-11T09:57:37.276Z,27.20
2017-07-11T10:00:06.368Z,27.40
2017-07-11T10:02:36.176Z,27.30
2017-07-11T10:05:04.471Z,27.40
2017-07-11T10:07:32.837Z,27.60
2017-07-11T10:10:01.116Z,27.70
2017-07-11T10:12:29.390Z,27.60
2017-07-11T10:14:57.728Z,27.50
2017-07-11T10:17:26.004Z,27.60
2017-07-11T10:19:55.053Z,27.70
2017-07-11T10:22:23.394Z,27.70
2017-07-11T10:24:51.684Z,27.70
2017-07-11T10:27:19.964Z,27.60
2017-07-11T10:29:48.284Z,27.70
2017-07-11T10:32:16.564Z,27.80
2017-07-11T10:34:45.608Z,27.80
2017-07-11T10:39:44.112Z,27.90
2017-07-11T10:42:13.160Z,27.90
2017-07-11T10:44:42.249Z,27.80
2017-07-11T10:47:10.528Z,27.80
2017-07-11T10:49:38.824Z,27.70
2017-07-11T10:54:36.668Z,27.90
2017-07-11T10:57:05.355Z,28.10
2017-07-11T10:59:33.713Z,28.20
2017-07-11T11:02:01.982Z,28.50
2017-07-11T11:04:31.395Z,28.70
2017-07-11T11:09:29.999Z,28.90
2017-07-11T11:11:58.283Z,28.80
2017-07-11T11:14:26.604Z,28.80
2017-07-11T11:16:56.383Z,28.70
2017-07-11T11:19:25.804Z,28.50
2017-07-11T11:21:54.920Z,28.50
2017-07-11T11:24:23.967Z,28.40
2017-07-11T11:26:52.253Z,28.20
2017-07-11T11:29:20.971Z,28.00
2017-07-11T11:31:50.441Z,27.90
2017-07-11T11:34:19.077Z,27.80
2017-07-11T11:36:47.411Z,27.50
2017-07-11T11:39:17.120Z,27.40
2017-07-11T11:41:45.399Z,27.20
2017-07-11T11:44:13.741Z,27.10
2017-07-11T11:46:43.299Z,27.10
2017-07-11T11:51:42.271Z,27.40
2017-07-11T11:54:12.052Z,27.50
2017-07-11T11:56:40.332Z,27.60
2017-07-11T12:01:39.632Z,27.80
2017-07-11T12:04:07.932Z,27.90
2017-07-11T12:06:36.271Z,28.00
2017-07-11T12:14:06.366Z,28.30
2017-07-11T12:16:34.655Z,28.30
2017-07-11T12:19:03.395Z,28.20
2017-07-11T12:24:01.231Z,28.30
2017-07-11T12:26:31.040Z,28.30
2017-07-11T12:28:59.804Z,28.10
2017-07-11T12:31:29.587Z,28.10
2017-07-11T12:33:57.860Z,28.00
2017-07-11T12:36:26.187Z,28.10
2017-07-11T12:38:55.232Z,28.00
2017-07-11T12:41:24.289Z,28.00
2017-07-11T12:43:53.760Z,28.10
2017-07-11T12:51:21.928Z,28.30
2017-07-11T12:53:50.200Z,28.30
2017-07-11T12:56:20.020Z,28.30
2017-07-11T12:58:49.103Z,28.30
2017-07-11T13:01:18.519Z,28.20
2017-07-11T13:03:46.821Z,28.10
2017-07-11T13:06:15.492Z,28.20
2017-07-11T13:08:44.907Z,28.40
2017-07-11T13:11:13.183Z,28.50
2017-07-11T13:13:41.531Z,28.50
2017-07-11T13:16:09.806Z,28.60
2017-07-11T13:18:38.093Z,28.50
2017-07-11T13:21:07.528Z,28.50
2017-07-11T13:23:36.583Z,28.40
2017-07-11T13:26:05.651Z,28.30
2017-07-11T13:28:33.984Z,28.20
2017-07-11T13:33:31.795Z,28.00
2017-07-11T13:38:30.113Z,27.90
2017-07-11T13:40:58.388Z,27.70
2017-07-11T13:43:26.708Z,27.60
2017-07-11T13:45:55.385Z,27.40
2017-07-11T13:48:24.804Z,27.40
2017-07-11T13:50:53.131Z,27.20
2017-07-11T13:53:21.424Z,27.20
2017-07-11T13:55:49.700Z,27.10
2017-07-11T13:58:18.104Z,27.10
2017-07-11T14:00:47.166Z,27.10
2017-07-11T14:03:16.260Z,27.00
2017-07-11T14:05:45.343Z,27.00
2017-07-11T14:08:14.399Z,26.90
2017-07-11T14:10:43.448Z,26.80
2017-07-11T14:13:11.795Z,26.80
2017-07-11T14:15:40.091Z,26.80
2017-07-11T14:18:09.883Z,26.70
2017-07-11T14:20:38.286Z,26.70
2017-07-11T14:23:06.574Z,26.70
2017-07-11T14:25:34.875Z,26.70
2017-07-11T14:28:03.645Z,26.70
2017-07-11T14:30:32.715Z,26.70
2017-07-11T14:33:01.448Z,26.80
2017-07-11T14:35:29.891Z,26.80
2017-07-11T14:37:59.315Z,26.70
2017-07-11T14:40:27.615Z,26.70
2017-07-11T14:42:56.040Z,26.60
2017-07-11T14:45:25.080Z,26.70
2017-07-11T14:47:54.120Z,26.60
2017-07-11T14:52:53.641Z,26.50
2017-07-11T14:55:21.990Z,26.50
2017-07-11T14:57:50.681Z,26.50
2017-07-11T15:00:19.779Z,26.40
2017-07-11T15:02:48.060Z,26.50
2017-07-11T15:05:16.491Z,26.40
2017-07-11T15:07:45.922Z,26.40
2017-07-11T15:10:14.292Z,26.40
2017-07-11T15:12:42.637Z,26.40
2017-07-11T15:15:10.927Z,26.30
2017-07-11T15:17:39.216Z,26.40
2017-07-11T15:25:06.655Z,26.40
2017-07-11T15:32:34.565Z,26.20
2017-07-11T15:35:03.299Z,26.20
2017-07-11T15:37:31.572Z,26.20
2017-07-11T15:40:01.355Z,26.20
2017-07-11T15:44:59.844Z,26.00
2017-07-11T15:47:28.119Z,26.00
2017-07-11T15:49:56.745Z,25.90
2017-07-11T15:52:25.020Z,25.90
2017-07-11T15:54:53.307Z,25.90
2017-07-11T15:57:22.785Z,25.90
2017-07-11T16:02:21.351Z,26.00
2017-07-11T16:04:49.791Z,26.00
2017-07-11T16:07:18.836Z,26.00
2017-07-11T16:09:47.872Z,26.00
2017-07-11T16:12:16.979Z,26.00
2017-07-11T16:14:45.257Z,25.90
2017-07-11T16:17:13.536Z,25.90
2017-07-11T16:22:11.500Z,25.80
2017-07-11T16:24:40.170Z,25.80
2017-07-11T16:27:08.520Z,25.80
2017-07-11T16:29:36.819Z,25.70
2017-07-11T16:32:05.868Z,25.70
2017-07-11T16:34:34.202Z,25.80
2017-07-11T16:39:32.789Z,25.70
2017-07-11T16:42:01.122Z,25.70
2017-07-11T16:46:59.304Z,25.80
2017-07-11T16:49:27.627Z,25.70
2017-07-11T16:54:26.948Z,25.70
2017-07-11T16:56:55.260Z,25.70
2017-07-11T16:59:25.044Z,25.60
2017-07-11T17:04:23.294Z,25.50
2017-07-11T17:09:21.544Z,25.50
2017-07-11T17:11:49.819Z,25.50
2017-07-11T17:14:18.100Z,25.40
2017-07-11T17:19:16.326Z,25.40
2017-07-11T17:21:44.703Z,25.40
2017-07-11T17:24:13.035Z,25.40
2017-07-11T17:26:41.349Z,25.30
2017-07-11T17:29:09.756Z,25.30
2017-07-11T17:31:39.608Z,25.30
2017-07-11T17:36:38.671Z,25.20
2017-07-11T17:39:07.009Z,25.20
2017-07-11T17:41:35.322Z,25.10
2017-07-11T17:44:03.632Z,25.10
2017-07-11T17:46:31.957Z,25.00
2017-07-11T17:49:00.294Z,24.90
2017-07-11T17:51:29.635Z,24.90
2017-07-11T17:53:58.056Z,25.00
2017-07-11T17:56:27.891Z,24.90
2017-07-11T17:58:56.233Z,24.90
2017-07-11T18:01:24.583Z,24.90
2017-07-11T18:03:54.381Z,24.90
2017-07-11T18:06:22.695Z,24.90
2017-07-11T18:08:51.032Z,24.90
2017-07-11T18:13:50.348Z,24.80
2017-07-11T18:16:18.991Z,24.80
2017-07-11T18:18:48.793Z,24.80
2017-07-11T18:21:17.473Z,24.80
2017-07-11T18:23:46.952Z,24.70
2017-07-11T18:26:15.227Z,24.70
2017-07-11T18:28:43.523Z,24.70
2017-07-11T18:31:13.352Z,24.60
2017-07-11T18:33:41.628Z,24.60
2017-07-11T18:36:09.931Z,24.50
2017-07-11T18:38:38.312Z,24.60
2017-07-11T18:43:36.129Z,24.50
2017-07-11T18:46:04.601Z,24.50
2017-07-11T18:48:33.154Z,24.40
2017-07-11T18:51:03.005Z,24.40
2017-07-11T18:56:02.256Z,24.20
2017-07-11T18:58:30.537Z,24.00
2017-07-11T19:00:58.882Z,23.80
2017-07-11T19:03:27.153Z,23.50
2017-07-11T19:05:56.936Z,23.40
2017-07-11T19:08:25.263Z,23.20
2017-07-11T19:10:53.583Z,23.10
2017-07-11T19:13:21.872Z,22.90
2017-07-11T19:15:50.451Z,22.90
2017-07-11T19:18:19.492Z,22.80
2017-07-11T19:23:18.094Z,22.70
2017-07-11T19:25:46.391Z,22.70
2017-07-11T19:28:14.681Z,22.60
2017-07-11T19:34:06.269Z,22.50
2017-07-11T19:36:35.377Z,22.30
2017-07-11T19:39:04.429Z,22.30
2017-07-11T19:41:32.708Z,22.30
2017-07-11T19:44:02.554Z,22.30
2017-07-11T19:49:00.764Z,22.20
2017-07-11T19:51:29.088Z,22.20
2017-07-11T19:53:57.371Z,22.20
2017-07-11T19:56:25.662Z,22.20
2017-07-11T19:58:54.350Z,22.20
2017-07-11T20:01:23.428Z,22.10
2017-07-11T20:03:52.106Z,22.10
2017-07-11T20:06:20.447Z,22.00
2017-07-11T20:08:50.241Z,22.00
2017-07-11T20:11:18.574Z,22.00
2017-07-11T20:16:16.796Z,21.90
2017-07-11T20:23:44.391Z,21.80
2017-07-11T20:28:43.745Z,21.70
2017-07-11T20:33:41.519Z,21.60
2017-07-11T20:36:09.847Z,21.60
2017-07-11T20:38:38.911Z,21.50
2017-07-11T20:41:07.963Z,21.50
2017-07-11T20:43:37.456Z,21.50
2017-07-11T20:48:36.028Z,21.40
2017-07-11T20:51:04.735Z,21.40
2017-07-11T20:53:34.537Z,21.40
2017-07-11T20:56:02.823Z,21.30
2017-07-11T20:58:31.964Z,21.30
2017-07-11T21:01:01.742Z,21.30
2017-07-11T21:06:00.351Z,21.40
2017-07-11T21:08:28.632Z,21.30
2017-07-11T21:10:56.913Z,21.30
2017-07-11T21:13:25.264Z,21.30
2017-07-11T21:15:53.560Z,21.30
2017-07-11T21:18:22.622Z,21.20
2017-07-11T21:20:51.529Z,21.20
2017-07-11T21:23:19.811Z,21.20
2017-07-11T21:25:48.091Z,21.20
2017-07-11T21:28:17.936Z,21.20
2017-07-11T21:33:16.483Z,21.30
2017-07-11T21:35:45.595Z,21.30
2017-07-11T21:38:14.643Z,21.30
2017-07-11T21:40:43.678Z,21.30
2017-07-11T21:45:41.924Z,21.30
2017-07-11T21:48:10.204Z,21.40
2017-07-11T21:50:38.548Z,21.30
2017-07-11T21:53:06.856Z,21.30
2017-07-11T21:55:35.173Z,21.20
2017-07-11T21:58:04.774Z,21.20
2017-07-11T22:00:33.065Z,21.20
2017-07-11T22:03:01.342Z,21.20
2017-07-11T22:05:29.696Z,21.20
2017-07-11T22:07:57.972Z,21.20
2017-07-11T22:10:27.392Z,21.20
2017-07-11T22:12:56.485Z,21.10
2017-07-11T22:15:25.903Z,21.20
2017-07-11T22:17:54.206Z,21.20
2017-07-11T22:25:21.567Z,21.10
2017-07-11T22:27:49.923Z,21.10
2017-07-11T22:37:48.223Z,21.10
2017-07-11T22:40:16.519Z,21.10
2017-07-11T22:42:45.133Z,21.10
2017-07-11T22:45:14.925Z,21.10
2017-07-11T22:50:13.532Z,21.00
2017-07-11T22:52:41.823Z,21.00
2017-07-11T22:55:10.112Z,21.00
2017-07-11T22:57:39.268Z,21.00
2017-07-11T23:00:08.353Z,21.00
2017-07-11T23:02:37.438Z,21.00
2017-07-11T23:07:35.752Z,21.00
2017-07-11T23:10:04.068Z,21.00
2017-07-11T23:12:32.444Z,20.90
2017-07-11T23:15:01.875Z,20.90
2017-07-11T23:17:30.158Z,20.80
2017-07-11T23:19:58.491Z,20.70
2017-07-11T23:22:26.780Z,20.70
2017-07-11T23:24:55.063Z,20.70
2017-07-11T23:27:23.781Z,20.70
2017-07-11T23:29:52.860Z,20.70
2017-07-11T23:32:21.148Z,20.70
2017-07-11T23:34:49.477Z,20.70
2017-07-11T23:37:17.756Z,20.80
2017-07-11T23:42:16.355Z,20.80
2017-07-11T23:44:46.219Z,20.80
2017-07-11T23:47:15.271Z,20.80
2017-07-11T23:52:13.860Z,20.90
2017-07-11T23:54:42.143Z,20.80
2017-07-11T23:57:10.463Z,20.80
2017-07-11T23:59:38.772Z,20.80
